Time;durP1;ratioP1;P1;durP2;ratioP2;P2;SDS_P1;SDS_P2;PMS_P1;PMS_P2;Temp;Humidity;BMP_temperature;BMP_pressure;BME280_temperature;BME280_humidity;BME280_pressure;Samples;Min_cycle;Max_cycle;Signal;HPM_P1;HPM_P2
2022/06/14 00:01:13;;;;;;;4.80;1.50;;;;;;;15.90;100.00;101389.41;5052981;28;20475;-83
2022/06/14 00:03:43;;;;;;;5.90;1.60;;;;;;;16.06;100.00;101398.31;5062443;28;20527;-83
2022/06/14 00:06:13;;;;;;;3.78;1.40;;;;;;;15.87;100.00;101385.16;5061605;28;20055;-82
2022/06/14 00:08:40;;;;;;;6.32;1.55;;;;;;;16.04;100.00;101397.53;5066628;28;20057;-83
2022/06/14 00:11:13;;;;;;;7.15;1.88;;;;;;;15.92;100.00;101388.41;5062615;28;20056;-83
2022/06/14 00:13:41;;;;;;;7.45;1.80;;;;;;;15.54;100.00;101396.38;5057236;28;20436;-83
2022/06/14 00:16:09;;;;;;;4.78;1.40;;;;;;;15.53;100.00;101375.34;5065920;28;20045;-83
2022/06/14 00:18:36;;;;;;;4.03;1.30;;;;;;;15.67;100.00;101379.94;5051767;28;20049;-83
2022/06/14 00:21:04;;;;;;;4.68;1.38;;;;;;;15.64;100.00;101396.81;5051879;28;20056;-83
2022/06/14 00:23:31;;;;;;;7.85;1.80;;;;;;;15.65;100.00;101372.13;5061495;28;20047;-83
2022/06/14 00:25:59;;;;;;;3.65;1.10;;;;;;;15.59;100.00;101390.88;5055852;28;20501;-83
2022/06/14 00:28:29;;;;;;;6.40;1.33;;;;;;;15.48;100.00;101372.94;5047256;28;20056;-83
2022/06/14 00:31:08;;;;;;;5.18;1.30;;;;;;;15.31;100.00;101386.91;5053249;28;20056;-83
2022/06/14 00:33:35;;;;;;;5.25;1.40;;;;;;;15.14;100.00;101369.25;5066480;28;20403;-83
2022/06/14 00:36:06;;;;;;;7.75;1.90;;;;;;;15.03;100.00;101392.59;5072789;28;20052;-82
2022/06/14 00:38:34;;;;;;;9.38;1.75;;;;;;;14.98;100.00;101387.56;5064595;28;20060;-83
2022/06/14 00:41:02;;;;;;;5.20;1.58;;;;;;;14.97;100.00;101388.47;5052736;28;20059;-82
2022/06/14 00:43:31;;;;;;;5.25;1.70;;;;;;;14.89;100.00;101374.81;5057537;28;20064;-83
2022/06/14 00:46:06;;;;;;;10.02;2.17;;;;;;;14.67;100.00;101384.59;5055564;28;20056;-82
2022/06/14 00:48:34;;;;;;;8.25;2.03;;;;;;;14.80;100.00;101362.03;5058156;28;20041;-82
2022/06/14 00:51:05;;;;;;;5.53;1.70;;;;;;;14.50;100.00;101372.13;5056249;28;20128;-82
2022/06/14 00:53:41;;;;;;;8.40;2.22;;;;;;;14.59;100.00;101377.88;5046723;28;20043;-82
2022/06/14 00:56:21;;;;;;;7.10;1.85;;;;;;;14.31;100.00;101335.22;5065954;28;20048;-82
2022/06/14 00:58:57;;;;;;;5.88;1.95;;;;;;;14.53;100.00;101350.91;5065923;28;20044;-83
2022/06/14 01:01:30;;;;;;;7.53;1.70;;;;;;;14.79;100.00;101360.31;5052887;28;20049;-82
2022/06/14 01:04:02;;;;;;;8.32;2.08;;;;;;;14.77;100.00;101360.41;5050472;28;20097;-82
2022/06/14 01:06:31;;;;;;;3.60;1.35;;;;;;;14.88;100.00;101370.44;5057040;28;20536;-82
2022/06/14 01:09:06;;;;;;;6.90;1.75;;;;;;;15.23;100.00;101375.88;5057878;28;20059;-82
2022/06/14 01:11:55;;;;;;;6.15;1.58;;;;;;;15.27;100.00;101364.25;5072438;28;20091;-82
2022/06/14 01:14:30;;;;;;;6.13;2.00;;;;;;;15.29;100.00;101366.81;5055871;28;20398;-82
2022/06/14 01:16:57;;;;;;;6.63;1.90;;;;;;;15.12;100.00;101360.56;5070921;28;20102;-82
2022/06/14 01:19:25;;;;;;;7.57;1.80;;;;;;;14.89;100.00;101374.81;5071112;28;20049;-82
2022/06/14 01:22:12;;;;;;;9.15;1.83;;;;;;;14.75;100.00;101370.16;5055730;28;20061;-82
2022/06/14 01:24:42;;;;;;;7.78;1.67;;;;;;;14.56;100.00;101345.53;5054861;28;20080;-82
2022/06/14 01:27:12;;;;;;;7.53;1.65;;;;;;;14.65;100.00;101371.47;5047318;28;20132;-82
2022/06/14 01:29:45;;;;;;;4.60;1.58;;;;;;;14.89;100.00;101366.03;5055983;28;20049;-82
2022/06/14 01:32:15;;;;;;;6.53;1.63;;;;;;;14.79;100.00;101355.91;5057150;28;20057;-82
2022/06/14 01:34:53;;;;;;;5.75;1.33;;;;;;;14.70;100.00;101363.38;5066498;28;20045;-82
2022/06/14 01:37:21;;;;;;;8.43;1.63;;;;;;;14.80;100.00;101370.81;5063352;28;20062;-82
2022/06/14 01:39:49;;;;;;;7.40;1.50;;;;;;;14.77;100.00;101360.41;5066480;28;20063;-82
2022/06/14 01:42:24;;;;;;;5.95;1.27;;;;;;;14.80;100.00;101357.63;5049025;28;20430;-82
2022/06/14 01:45:06;;;;;;;6.30;1.55;;;;;;;14.98;100.00;101371.75;5065605;28;20044;-82
2022/06/14 01:48:00;;;;;;;3.20;1.33;;;;;;;14.88;100.00;101373.09;5062717;28;20402;-82
2022/06/14 01:53:58;;;;;;;4.22;1.30;;;;;;;14.95;100.00;101336.75;5051985;28;20494;-82
2022/06/14 01:56:45;;;;;;;3.00;1.20;;;;;;;15.10;100.00;101351.88;5070577;28;20060;-82
2022/06/14 01:59:56;;;;;;;3.67;1.17;;;;;;;14.95;100.00;101361.34;5055321;28;20044;-82
2022/06/14 02:02:32;;;;;;;5.40;1.25;;;;;;;14.77;100.00;101330.56;4996811;28;20045;-82
2022/06/14 02:05:09;;;;;;;4.07;1.30;;;;;;;14.45;100.00;101351.25;5060132;28;20127;-82
2022/06/14 02:07:54;;;;;;;5.30;2.30;;;;;;;14.43;100.00;101345.22;5061672;28;20428;-83
2022/06/14 02:10:39;;;;;;;5.20;1.50;;;;;;;14.54;100.00;101335.03;5066699;28;20052;-82
2022/06/14 02:13:14;;;;;;;5.72;1.50;;;;;;;14.59;100.00;101350.69;5048996;28;20067;-83
2022/06/14 02:16:03;;;;;;;3.58;1.27;;;;;;;14.84;100.00;101353.06;5052573;28;20487;-83
2022/06/14 02:18:45;;;;;;;6.25;1.83;;;;;;;14.34;100.00;101343.84;5061178;28;20045;-84
2022/06/14 02:21:17;;;;;;;6.13;1.58;;;;;;;14.27;100.00;101344.16;5063090;28;20055;-83
2022/06/14 02:23:48;;;;;;;8.05;1.95;;;;;;;14.42;100.00;101325.03;5065934;28;20047;-84
2022/06/14 02:26:23;;;;;;;8.13;1.60;;;;;;;14.43;100.00;101345.22;5061216;28;20399;-83
2022/06/14 02:29:25;;;;;;;5.78;1.52;;;;;;;14.32;100.00;101348.28;5058247;28;20056;-84
2022/06/14 02:32:00;;;;;;;4.47;1.50;;;;;;;14.17;100.00;101341.06;5048722;28;20044;-84
2022/06/14 02:34:49;;;;;;;5.43;1.42;;;;;;;14.09;100.00;101337.91;5063644;28;20401;-84
2022/06/14 02:37:24;;;;;;;7.03;1.65;;;;;;;14.19;100.00;101332.16;5058666;28;20427;-83
2022/06/14 02:39:56;;;;;;;6.20;1.50;;;;;;;13.73;100.00;101305.16;5063858;28;20052;-83
2022/06/14 02:42:33;;;;;;;8.77;1.88;;;;;;;13.57;100.00;101306.72;5057178;28;20068;-83
2022/06/14 02:45:15;;;;;;;8.07;1.70;;;;;;;14.08;100.00;101344.94;5055708;28;20497;-84
2022/06/14 02:47:51;;;;;;;5.75;1.50;;;;;;;14.07;100.00;101326.59;5056401;28;20052;-84
2022/06/14 02:50:49;;;;;;;6.03;1.50;;;;;;;14.05;100.00;101309.06;5036979;28;20053;-84
2022/06/14 02:53:26;;;;;;;7.15;1.70;;;;;;;13.88;100.00;101329.97;5051515;28;20056;-84
2022/06/14 02:56:00;;;;;;;6.45;1.45;;;;;;;13.79;100.00;101333.00;5055353;28;20048;-84
2022/06/14 02:58:38;;;;;;;5.45;1.25;;;;;;;13.56;100.00;101300.59;5070462;28;20044;-84
2022/06/14 03:01:13;;;;;;;5.63;1.60;;;;;;;13.84;100.00;101316.09;5067187;28;20481;-84
2022/06/14 03:03:50;;;;;;;4.70;1.40;;;;;;;14.11;100.00;101336.94;5052457;28;20053;-84
2022/06/14 03:06:36;;;;;;;3.85;1.20;;;;;;;14.38;100.00;101337.50;5066053;28;20079;-84
2022/06/14 03:09:05;;;;;;;2.75;1.10;;;;;;;14.41;100.00;101339.13;5057521;28;20059;-84
2022/06/14 03:11:46;;;;;;;5.95;1.52;;;;;;;13.79;100.00;101291.75;5053682;28;20055;-83
2022/06/14 03:14:45;;;;;;;5.40;1.40;;;;;;;14.55;100.00;101331.47;5059973;28;20044;-84
2022/06/14 03:17:30;;;;;;;5.25;1.23;;;;;;;14.50;100.00;101335.22;5061267;28;20072;-84
2022/06/14 03:20:10;;;;;;;4.10;1.33;;;;;;;14.35;100.00;101318.34;5064276;28;20045;-84
2022/06/14 03:23:00;;;;;;;4.38;1.25;;;;;;;14.51;100.00;101321.16;5049228;28;20098;-84
2022/06/14 03:25:29;;;;;;;2.28;0.95;;;;;;;14.72;100.00;101333.38;5066490;28;20132;-83
2022/06/14 03:28:10;;;;;;;2.83;1.00;;;;;;;14.50;100.00;101320.31;5059178;28;20071;-83
2022/06/14 03:30:49;;;;;;;6.90;1.20;;;;;;;14.23;100.00;101333.75;5061193;28;20049;-84
2022/06/14 03:33:43;;;;;;;5.65;1.30;;;;;;;14.52;100.00;101326.34;5048489;28;20052;-83
2022/06/14 03:36:10;;;;;;;5.03;1.30;;;;;;;14.20;100.00;101290.88;5067075;28;20060;-84
2022/06/14 03:38:57;;;;;;;7.25;1.45;;;;;;;15.03;100.00;101331.09;5054982;28;20479;-84
2022/06/14 03:41:27;;;;;;;4.00;1.17;;;;;;;15.14;100.00;101326.22;5070933;28;20402;-84
2022/06/14 03:43:58;;;;;;;4.15;1.25;;;;;;;15.02;100.00;101310.97;5056229;28;20434;-84
2022/06/14 03:46:27;;;;;;;3.25;1.20;;;;;;;15.15;100.00;101334.03;5053545;28;20131;-83
2022/06/14 03:49:21;;;;;;;4.95;1.10;;;;;;;15.39;100.00;101336.44;5055252;28;20053;-83
2022/06/14 03:52:14;;;;;;;4.43;1.33;;;;;;;15.30;100.00;101344.81;5058596;28;20057;-84
2022/06/14 03:54:48;;;;;;;3.13;1.20;;;;;;;15.14;100.00;101342.03;5061843;28;20379;-83
2022/06/14 03:57:28;;;;;;;6.30;1.40;;;;;;;15.32;100.00;101346.41;5042686;28;20060;-83
2022/06/14 03:59:57;;;;;;;5.90;1.30;;;;;;;15.59;100.00;101332.81;5046116;28;20049;-83
2022/06/14 04:05:37;;;;;;;5.15;1.27;;;;;;;15.35;100.00;101338.38;5055001;28;20045;-83
2022/06/14 04:08:23;;;;;;;5.00;1.35;;;;;;;15.24;100.00;101343.28;5074265;28;20063;-83
2022/06/14 04:10:59;;;;;;;3.22;1.23;;;;;;;15.68;100.00;101348.19;5068861;28;20513;-81
2022/06/14 04:13:42;;;;;;;3.88;1.17;;;;;;;15.46;100.00;101350.19;5037876;28;20480;-82
2022/06/14 04:16:33;;;;;;;4.72;1.10;;;;;;;15.70;100.00;101346.31;5040065;28;20049;-83
2022/06/14 04:19:06;;;;;;;4.32;1.27;;;;;;;15.51;100.00;101343.75;5052201;28;20641;-83
2022/06/14 04:22:17;;;;;;;7.82;1.40;;;;;;;15.35;100.00;101346.28;5052360;28;20055;-83
2022/06/14 04:25:01;;;;;;;8.32;1.60;;;;;;;15.36;100.00;101313.69;5031146;28;20407;-83
2022/06/14 04:27:35;;;;;;;4.65;1.48;;;;;;;15.73;100.00;101354.09;5059735;28;20486;-83
2022/06/14 04:30:02;;;;;;;7.30;1.48;;;;;;;15.66;100.00;101352.69;5051997;28;20063;-83
2022/06/14 04:32:51;;;;;;;3.80;1.38;;;;;;;15.42;100.00;101309.03;5047604;28;20448;-83
2022/06/14 04:35:40;;;;;;;5.80;1.38;;;;;;;15.40;100.00;101345.19;5052286;28;20387;-83
2022/06/14 04:38:34;;;;;;;5.28;1.45;;;;;;;15.47;100.00;101325.50;5053087;28;20049;-83
2022/06/14 04:41:07;;;;;;;7.13;1.30;;;;;;;15.72;100.00;101333.94;5057656;28;20115;-83
2022/06/14 04:43:39;;;;;;;6.03;1.38;;;;;;;15.32;100.00;101341.16;5060163;28;20045;-83
2022/06/14 04:46:11;;;;;;;5.32;1.30;;;;;;;15.70;100.00;101333.13;5071764;28;20053;-83
2022/06/14 04:48:44;;;;;;;4.68;1.05;;;;;;;15.79;100.00;101344.22;5058664;28;20090;-83
2022/06/14 04:51:23;;;;;;;3.10;1.05;;;;;;;15.86;100.00;101343.81;5057736;28;20403;-83
2022/06/14 04:53:49;;;;;;;4.57;1.17;;;;;;;15.74;100.00;101342.66;5055277;28;20041;-83
2022/06/14 04:56:26;;;;;;;5.63;1.33;;;;;;;15.36;100.00;101316.31;5051034;28;20384;-83
2022/06/14 04:59:03;;;;;;;4.55;1.58;;;;;;;15.53;100.00;101344.53;5064678;28;20052;-83
2022/06/14 05:01:37;;;;;;;3.60;1.10;;;;;;;15.69;100.00;101338.50;5045581;28;20049;-82
2022/06/14 05:04:11;;;;;;;5.43;1.70;;;;;;;15.37;100.00;101333.88;5060143;28;20055;-84
2022/06/14 05:06:56;;;;;;;8.07;1.40;;;;;;;15.20;100.00;101320.63;5055834;28;20163;-83
2022/06/14 05:09:30;;;;;;;2.83;0.90;;;;;;;15.53;100.00;101323.41;5060078;28;20051;-84
2022/06/14 05:12:11;;;;;;;7.70;1.85;;;;;;;15.35;100.00;101341.00;5069267;28;20053;-88
2022/06/14 05:14:51;;;;;;;2.65;1.00;;;;;;;15.42;100.00;101319.59;5043585;28;20045;-83
2022/06/14 05:17:44;;;;;;;3.95;1.00;;;;;;;15.50;100.00;101315.66;5069543;28;20045;-83
2022/06/14 05:20:21;;;;;;;4.43;1.20;;;;;;;15.35;100.00;101326.94;5055566;28;20053;-83
2022/06/14 05:22:59;;;;;;;4.75;1.45;;;;;;;15.33;100.00;101339.34;5039339;28;20059;-83
2022/06/14 05:25:39;;;;;;;5.63;1.23;;;;;;;15.40;100.00;101301.19;5048408;28;20040;-83
2022/06/14 05:28:15;;;;;;;3.15;1.00;;;;;;;15.48;100.00;101293.75;5072583;28;20110;-83
2022/06/14 05:30:59;;;;;;;5.00;0.98;;;;;;;15.75;100.00;101303.91;5062799;28;20041;-83
2022/06/14 05:33:40;;;;;;;;;;;;;;;16.30;100.00;101329.28;5061069;28;20483;-83
2022/06/14 05:36:07;;;;;;;4.47;1.00;;;;;;;16.33;100.00;101340.53;5051128;28;20590;-83
2022/06/14 05:38:49;;;;;;;6.53;1.30;;;;;;;15.91;100.00;101330.41;5051508;28;20049;-83
2022/06/14 05:41:42;;;;;;;6.25;1.13;;;;;;;15.39;100.00;101325.88;5064901;28;20063;-83
2022/06/14 05:44:35;;;;;;;5.38;1.10;;;;;;;15.16;100.00;101332.25;5062044;28;20469;-84
2022/06/14 05:47:14;;;;;;;6.60;1.45;;;;;;;15.13;100.00;101327.13;5070654;28;20059;-84
2022/06/14 05:49:52;;;;;;;8.25;1.40;;;;;;;14.95;100.00;101332.31;5042638;28;20067;-83
2022/06/14 05:52:31;;;;;;;7.45;1.75;;;;;;;15.02;100.00;101334.69;5059088;28;20874;-83
2022/06/14 05:54:57;;;;;;;5.45;1.40;;;;;;;15.02;100.00;101334.69;5037110;28;20053;-84
2022/06/14 05:57:42;;;;;;;4.63;1.10;;;;;;;15.05;100.00;101335.41;5064443;28;20052;-84
2022/06/14 06:00:16;;;;;;;2.17;0.93;;;;;;;15.18;100.00;101339.16;5057066;28;20111;-84
2022/06/14 06:02:47;;;;;;;;;;;;;;;15.43;100.00;101337.13;5059855;28;20048;-84
2022/06/14 06:05:27;;;;;;;3.88;1.05;;;;;;;15.00;100.00;101321.56;5053469;28;19928;-83
2022/06/14 06:08:17;;;;;;;6.75;1.48;;;;;;;14.95;100.00;101331.47;5059932;28;20048;-84
2022/06/14 06:10:49;;;;;;;3.45;1.05;;;;;;;14.89;100.00;101319.44;5034786;28;20045;-83
2022/06/14 06:13:31;;;;;;;3.80;1.20;;;;;;;15.23;100.00;101330.16;5043320;28;20052;-83
2022/06/14 06:15:59;;;;;;;5.55;1.20;;;;;;;15.14;100.00;101337.59;5040833;28;20558;-83
2022/06/14 06:18:40;;;;;;;2.92;1.00;;;;;;;15.51;100.00;101337.59;5063540;28;20052;-83
2022/06/14 06:21:33;;;;;;;4.18;1.00;;;;;;;15.66;100.00;101346.56;5067803;28;20059;-83
2022/06/14 06:24:04;;;;;;;2.97;1.10;;;;;;;15.24;100.00;101329.25;5034248;28;20049;-84
2022/06/14 06:26:36;;;;;;;4.25;1.10;;;;;;;15.29;100.00;101335.16;5050622;28;20052;-83
2022/06/14 06:29:23;;;;;;;4.28;1.08;;;;;;;15.18;100.00;101298.75;5050473;28;20060;-83
2022/06/14 06:31:50;;;;;;;4.65;1.00;;;;;;;15.48;100.00;101321.94;5051043;28;20525;-83
2022/06/14 06:34:18;;;;;;;6.13;1.25;;;;;;;15.52;100.00;101323.50;5056901;28;20124;-83
2022/06/14 06:37:06;;;;;;;4.47;1.20;;;;;;;15.69;100.00;101339.34;5070661;28;20482;-83
2022/06/14 06:39:52;;;;;;;2.90;1.00;;;;;;;15.61;100.00;101338.88;5074439;28;20052;-83
2022/06/14 06:42:29;;;;;;;6.07;1.13;;;;;;;15.64;100.00;101317.59;5066983;28;20718;-83
2022/06/14 06:45:17;;;;;;;6.22;1.40;;;;;;;15.88;100.00;101327.91;5065964;28;20052;-83
2022/06/14 06:47:56;;;;;;;4.70;1.15;;;;;;;15.74;100.00;101336.47;5056778;28;20049;-83
2022/06/14 06:50:33;;;;;;;4.00;1.15;;;;;;;15.78;100.00;101330.16;5071433;28;20059;-83
2022/06/14 06:52:59;;;;;;;7.63;1.27;;;;;;;15.81;100.00;101348.50;5056652;28;20046;-83
2022/06/14 06:55:47;;;;;;;3.05;0.95;;;;;;;15.93;100.00;101341.72;5073834;28;20047;-83
2022/06/14 06:58:23;;;;;;;1.95;0.82;;;;;;;15.76;100.00;101337.31;5070308;28;20452;-84
2022/06/14 07:01:13;;;;;;;3.95;1.10;;;;;;;15.95;100.00;101345.13;5065875;28;20498;-83
2022/06/14 07:03:49;;;;;;;5.05;1.13;;;;;;;15.82;100.00;101320.31;5053474;28;20128;-82
2022/06/14 07:06:56;;;;;;;5.93;1.30;;;;;;;16.01;100.00;101344.00;5062250;28;20099;-83
2022/06/14 07:09:44;;;;;;;7.85;1.20;;;;;;;15.97;100.00;101330.09;5041297;28;20420;-83
2022/06/14 07:12:22;;;;;;;3.95;1.27;;;;;;;16.13;100.00;101332.81;5054360;28;20045;-83
2022/06/14 07:14:58;;;;;;;3.03;1.10;;;;;;;16.13;100.00;101330.16;5054005;28;20049;-83
2022/06/14 07:17:37;;;;;;;3.22;1.00;;;;;;;16.29;100.00;101346.94;5053006;28;20056;-83
2022/06/14 07:20:22;;;;;;;2.88;0.90;;;;;;;16.23;100.00;101343.75;5063609;28;20056;-83
2022/06/14 07:22:57;;;;;;;1.50;0.82;;;;;;;16.46;100.00;101337.25;5034559;28;20053;-83
2022/06/14 07:25:41;;;;;;;3.88;1.10;;;;;;;16.46;100.00;101331.97;5049125;28;20052;-83
2022/06/14 07:28:15;;;;;;;7.63;1.83;;;;;;;16.17;100.00;101344.91;5063965;28;20053;-83
2022/06/14 07:30:51;;;;;;;4.72;1.27;;;;;;;16.37;100.00;101351.81;5069556;28;20053;-83
2022/06/14 07:33:20;;;;;;;6.90;1.40;;;;;;;15.93;100.00;101342.56;5071042;28;20075;-83
2022/06/14 07:35:54;;;;;;;4.57;1.08;;;;;;;16.16;100.00;101358.19;5073331;28;20060;-83
2022/06/14 07:38:50;;;;;;;4.35;1.08;;;;;;;16.28;100.00;101347.00;5073910;28;20491;-84
2022/06/14 07:41:35;;;;;;;4.75;1.20;;;;;;;16.50;100.00;101344.94;5062600;28;20048;-80
2022/06/14 07:44:28;;;;;;;3.30;0.93;;;;;;;16.49;100.00;101348.53;5054714;28;20483;-83
2022/06/14 07:47:05;;;;;;;4.25;1.20;;;;;;;16.74;100.00;101344.56;5053339;28;20131;-83
2022/06/14 07:49:59;;;;;;;4.13;1.08;;;;;;;16.43;100.00;101340.06;5057873;28;20517;-83
2022/06/14 07:52:34;;;;;;;4.50;1.17;;;;;;;16.38;100.00;101353.53;5051564;28;20407;-84
2022/06/14 07:55:16;;;;;;;2.85;0.95;;;;;;;16.41;100.00;101334.84;5052529;28;20053;-83
2022/06/14 07:57:45;;;;;;;6.03;1.00;;;;;;;16.59;100.00;101353.31;5059063;28;20534;-83
2022/06/14 08:03:25;;;;;;;3.53;0.95;;;;;;;16.87;100.00;101347.44;5046781;28;20044;-83
2022/06/14 08:05:53;;;;;;;6.40;1.25;;;;;;;16.64;100.00;101328.38;5063772;28;20466;-83
2022/06/14 08:08:28;;;;;;;5.65;1.15;;;;;;;16.88;100.00;101344.69;5046764;28;20065;-83
2022/06/14 08:11:04;;;;;;;4.47;1.10;;;;;;;16.89;100.00;101338.50;5052564;28;20072;-83
2022/06/14 08:13:37;;;;;;;4.63;1.05;;;;;;;17.35;100.00;101347.44;5051690;28;20041;-83
2022/06/14 08:16:07;;;;;;;3.63;1.05;;;;;;;17.24;100.00;101338.31;5052201;28;20052;-83
2022/06/14 08:18:54;;;;;;;3.97;1.00;;;;;;;17.77;100.00;101344.13;5052538;28;20064;-83
2022/06/14 08:21:31;;;;;;;3.40;1.02;;;;;;;17.65;100.00;101334.25;5047796;28;20061;-83
2022/06/14 08:24:09;;;;;;;4.13;1.35;;;;;;;17.39;99.83;101277.53;5050780;28;20057;-83
2022/06/14 08:26:44;;;;;;;5.50;1.20;;;;;;;18.18;96.94;101330.28;5036581;28;20481;-83
2022/06/14 08:29:31;;;;;;;4.25;1.02;;;;;;;18.35;91.53;101317.81;5051852;28;20044;-83
2022/06/14 08:32:15;;;;;;;4.10;1.00;;;;;;;18.71;91.25;101316.47;5051243;28;20372;-83
2022/06/14 08:35:07;;;;;;;3.83;1.00;;;;;;;19.09;88.81;101321.19;5047483;28;20053;-84
2022/06/14 08:37:49;;;;;;;6.15;1.55;;;;;;;19.06;88.89;101316.06;5049201;28;20049;-84
2022/06/14 08:40:38;;;;;;;4.35;1.10;;;;;;;18.99;87.19;101312.94;5038165;28;20057;-84
2022/06/14 08:43:09;;;;;;;5.25;1.38;;;;;;;19.10;86.91;101312.25;5046082;28;20053;-84
2022/06/14 08:45:36;;;;;;;4.35;1.00;;;;;;;19.25;89.38;101313.09;5051300;28;20131;-84
2022/06/14 08:48:06;;;;;;;2.95;0.90;;;;;;;19.09;88.22;101315.88;5041817;28;20080;-84
2022/06/14 08:50:42;;;;;;;2.85;1.02;;;;;;;19.00;85.37;101314.66;5051039;28;20049;-85
2022/06/14 08:53:45;;;;;;;8.02;1.40;;;;;;;19.02;85.46;101309.25;5049118;28;20053;-85
2022/06/14 08:56:21;;;;;;;2.35;0.80;;;;;;;19.11;85.20;101295.41;5046926;28;20181;-85
2022/06/14 08:59:10;;;;;;;3.55;0.90;;;;;;;19.43;82.63;101313.69;5052068;28;20049;-84
2022/06/14 09:02:14;;;;;;;4.70;1.35;;;;;;;19.49;82.90;101310.59;5041464;28;20037;-85
2022/06/14 09:05:13;;;;;;;7.30;1.45;;;;;;;18.67;84.10;101309.66;5048582;28;20057;-85
2022/06/14 09:08:01;;;;;;;3.78;0.90;;;;;;;19.30;84.48;101303.88;5041535;28;20076;-85
2022/06/14 09:10:55;;;;;;;5.22;1.20;;;;;;;19.67;81.01;101305.88;5045718;28;20048;-86
2022/06/14 09:13:40;;;;;;;3.67;1.05;;;;;;;19.37;82.96;101303.44;5048232;28;20068;-85
2022/06/14 09:16:29;;;;;;;2.83;0.98;;;;;;;19.46;82.40;101295.75;5046640;28;20074;-85
2022/06/14 09:18:56;;;;;;;4.35;1.10;;;;;;;20.09;79.50;101285.34;5048800;28;20076;-85
2022/06/14 09:21:41;;;;;;;2.85;0.93;;;;;;;20.84;74.94;101300.50;5050329;28;20083;-85
2022/06/14 09:24:55;;;;;;;1.98;0.80;;;;;;;20.60;72.58;101298.59;5048822;28;20052;-85
2022/06/14 09:27:43;;;;;;;3.97;0.93;;;;;;;20.40;73.01;101315.13;4986260;28;20059;-85
2022/06/14 09:30:29;;;;;;;1.75;0.70;;;;;;;20.40;73.50;101313.31;5047043;28;20100;-85
2022/06/14 09:33:23;;;;;;;1.50;0.60;;;;;;;20.63;73.67;101284.28;5040871;28;20052;-85
2022/06/14 09:36:09;;;;;;;2.75;0.82;;;;;;;21.18;71.59;101306.91;5050676;28;20060;-85
2022/06/14 09:38:57;;;;;;;2.95;0.88;;;;;;;20.90;70.69;101313.38;5049576;28;20053;-85
2022/06/14 09:41:42;;;;;;;4.75;0.80;;;;;;;20.85;71.62;101308.38;5041268;28;20057;-86
2022/06/14 09:44:26;;;;;;;3.75;0.80;;;;;;;20.80;69.54;101301.69;5034150;28;20140;-85
2022/06/14 09:47:16;;;;;;;3.65;1.00;;;;;;;21.07;69.75;101300.63;5040032;28;20483;-85
2022/06/14 09:50:03;;;;;;;3.50;0.93;;;;;;;20.99;70.44;101311.84;5051597;28;20069;-85
2022/06/14 09:53:00;;;;;;;3.20;0.75;;;;;;;21.43;70.40;101307.75;5049114;28;20045;-85
2022/06/14 09:55:51;;;;;;;2.67;0.98;;;;;;;21.15;68.51;101308.94;5048651;28;20053;-85
2022/06/14 09:58:38;;;;;;;3.05;0.80;;;;;;;21.42;68.80;101317.56;5053205;28;20046;-85
2022/06/14 10:01:32;;;;;;;2.33;0.80;;;;;;;20.72;69.09;101298.75;5049068;28;20056;-85
2022/06/14 10:04:24;;;;;;;1.38;0.70;;;;;;;21.17;70.32;101301.69;5043025;28;20055;-86
2022/06/14 10:07:20;;;;;;;1.38;0.60;;;;;;;21.05;68.37;101312.28;5047632;28;20491;-85
2022/06/14 10:10:14;;;;;;;1.90;0.85;;;;;;;21.12;66.34;101307.31;5057936;28;20131;-84
2022/06/14 10:13:05;;;;;;;2.03;0.70;;;;;;;21.07;67.98;101309.50;5041376;28;20049;-86
2022/06/14 10:16:20;;;;;;;1.77;0.70;;;;;;;21.27;64.76;101309.84;5049772;28;20395;-85
2022/06/14 10:19:06;;;;;;;1.45;0.70;;;;;;;21.70;64.62;101307.50;5033303;28;20505;-85
2022/06/14 10:21:36;;;;;;;3.05;0.90;;;;;;;21.80;63.69;101303.19;5051182;28;20045;-86
2022/06/14 10:24:06;;;;;;;1.92;0.70;;;;;;;21.99;64.18;101307.97;5049102;28;20060;-86
2022/06/14 10:29:43;;;;;;;3.33;0.80;;;;;;;22.12;60.07;101312.34;5038742;28;20049;-85
2022/06/14 10:32:16;;;;;;;4.25;0.80;;;;;;;22.61;60.56;101313.00;5045565;28;20059;-85
2022/06/14 10:35:09;;;;;;;2.10;0.60;;;;;;;22.10;62.65;101295.63;5050192;28;20135;-85
2022/06/14 10:37:41;;;;;;;5.13;0.80;;;;;;;21.68;64.40;101306.78;5040596;28;20825;-86
2022/06/14 10:40:45;;;;;;;2.03;0.70;;;;;;;21.22;62.63;101295.03;5047054;28;20064;-82
2022/06/14 10:43:18;;;;;;;2.67;0.90;;;;;;;20.99;64.89;101304.72;5031344;28;20140;-83
2022/06/14 10:46:27;;;;;;;3.15;0.90;;;;;;;21.22;61.97;101292.38;5049471;28;20487;-84
2022/06/14 10:48:53;;;;;;;3.58;0.80;;;;;;;21.43;62.98;101313.06;5053198;28;20114;-83
2022/06/14 10:51:52;;;;;;;4.07;0.70;;;;;;;21.85;59.53;101304.63;5047100;28;20053;-83
2022/06/14 10:54:20;;;;;;;2.25;0.70;;;;;;;21.62;60.09;101312.59;5046954;28;20044;-84
2022/06/14 10:57:05;;;;;;;2.78;0.75;;;;;;;22.05;61.11;101301.31;5051954;28;20045;-83
2022/06/14 11:00:18;;;;;;;2.22;0.70;;;;;;;22.51;59.32;101307.56;5052468;28;20099;-84
2022/06/14 11:03:23;;;;;;;2.50;0.80;;;;;;;22.76;56.53;101311.78;5046081;28;20045;-83
2022/06/14 11:05:56;;;;;;;2.25;0.65;;;;;;;22.59;56.65;101318.47;5040071;28;20479;-84
2022/06/14 11:08:33;;;;;;;1.70;0.70;;;;;;;22.54;56.23;101302.84;5060804;28;20136;-83
2022/06/14 11:11:11;;;;;;;3.63;0.70;;;;;;;22.86;57.14;101304.75;5046515;28;20402;-83
2022/06/14 11:13:54;;;;;;;1.80;0.70;;;;;;;22.01;57.55;101302.53;5042637;28;20039;-86
2022/06/14 11:16:34;;;;;;;1.50;0.60;;;;;;;22.72;58.33;101295.16;5038901;28;20049;-85
2022/06/14 11:19:29;;;;;;;1.70;0.70;;;;;;;22.87;55.67;101303.75;5050128;28;20065;-84
2022/06/14 11:22:11;;;;;;;3.13;0.80;;;;;;;22.56;56.18;101306.22;5048033;28;20079;-82
2022/06/14 11:24:58;;;;;;;2.10;0.88;;;;;;;22.26;55.92;101319.28;5052933;28;20056;-85
2022/06/14 11:27:53;;;;;;;1.73;0.63;;;;;;;22.76;56.23;101317.13;5051603;28;20048;-85
2022/06/14 11:30:40;;;;;;;1.25;0.65;;;;;;;22.42;55.05;101306.47;5052215;28;20063;-85
2022/06/14 11:33:22;;;;;;;1.90;0.60;;;;;;;22.51;57.53;101292.41;5051880;28;20641;-85
2022/06/14 11:36:02;;;;;;;2.00;0.60;;;;;;;22.61;55.65;101315.66;5054014;28;20075;-85
2022/06/14 11:38:55;;;;;;;1.70;0.60;;;;;;;22.25;57.31;101333.56;5053198;28;20052;-85
2022/06/14 11:41:25;;;;;;;0.98;0.57;;;;;;;22.53;57.13;101316.28;5050072;28;20060;-85
2022/06/14 11:44:26;;;;;;;2.42;0.60;;;;;;;22.37;55.50;101317.50;5047119;28;20053;-85
2022/06/14 11:47:22;;;;;;;0.68;0.50;;;;;;;22.40;55.40;101320.88;5052149;28;20059;-83
2022/06/14 11:50:01;;;;;;;0.50;0.50;;;;;;;22.45;54.29;101302.69;5052621;28;20063;-84
2022/06/14 11:52:46;;;;;;;2.10;0.60;;;;;;;22.73;52.92;101312.91;5047683;28;20478;-84
2022/06/14 11:55:39;;;;;;;0.98;0.50;;;;;;;22.59;53.69;101310.44;5050792;28;20051;-85
2022/06/14 11:58:35;;;;;;;0.85;0.57;;;;;;;21.98;53.56;101295.59;5058864;28;20051;-86
2022/06/14 12:01:08;;;;;;;0.55;0.50;;;;;;;21.87;53.20;101311.56;5051995;28;20053;-86
2022/06/14 12:03:56;;;;;;;1.80;0.60;;;;;;;21.88;54.07;101301.75;5051404;28;20060;-86
2022/06/14 12:06:38;;;;;;;0.93;0.50;;;;;;;22.06;53.38;101295.00;5052684;28;20399;-86
2022/06/14 12:09:31;;;;;;;1.75;0.63;;;;;;;21.68;53.67;101311.25;5046181;28;20068;-86
2022/06/14 12:12:03;;;;;;;1.02;0.55;;;;;;;21.34;55.87;101305.78;5038897;28;20431;-85
2022/06/14 12:14:58;;;;;;;1.60;0.60;;;;;;;21.77;56.18;101316.72;5054695;28;20407;-86
2022/06/14 12:17:51;;;;;;;1.63;0.60;;;;;;;21.29;56.02;101302.59;5051123;28;20045;-86
2022/06/14 12:20:21;;;;;;;1.38;0.70;;;;;;;21.96;55.19;101310.84;5043631;28;20131;-86
2022/06/14 12:23:14;;;;;;;3.80;0.80;;;;;;;21.77;55.43;101318.56;5052660;28;20044;-86
2022/06/14 12:28:52;;;;;;;1.02;0.60;;;;;;;21.98;53.94;101310.75;5048154;28;20063;-86
2022/06/14 12:31:19;;;;;;;0.50;0.50;;;;;;;22.77;54.30;101302.81;5050347;28;20053;-85
2022/06/14 12:33:54;;;;;;;0.47;0.40;;;;;;;22.31;52.77;101298.44;5051050;28;20056;-86
2022/06/14 12:36:39;;;;;;;1.73;0.70;;;;;;;22.53;53.82;101302.94;5048452;28;21315;-86